Time,TemperatureF,DewpointF,PressureIn,WindDirection,WindDirectionDegrees,WindSpeedMPH,WindSpeedGustMPH,Humidity,HourlyPrecipIn,Conditions,Clouds,dailyrainin,SoftwareType,DateUTC
2013-01-26 03:28:00,14.0,3.4,29.97,North,-999,0.0,0.0,62,0.00,,,-99.99,FreeWX 2.04,2013-01-26 08:28:00,
2013-01-26 03:34:00,14.2,3.9,29.97,North,-999,0.0,0.0,63,0.00,,,-99.99,FreeWX 2.04,2013-01-26 08:34:00,
2013-01-26 03:39:00,14.4,4.1,29.97,North,-999,0.0,0.0,63,0.00,,,-99.99,FreeWX 2.04,2013-01-26 08:39:00,
2013-01-26 03:44:00,14.5,4.3,29.97,North,-999,0.0,0.0,63,0.00,,,-99.99,FreeWX 2.04,2013-01-26 08:44:00,
2013-01-26 03:49:00,14.7,4.5,29.97,North,-999,0.0,0.0,63,0.00,,,-99.99,FreeWX 2.04,2013-01-26 08:49:00,
2013-01-26 03:54:00,14.9,4.6,29.97,North,-999,0.0,0.0,63,0.00,,,-99.99,FreeWX 2.04,2013-01-26 08:54:00,
2013-01-26 03:59:00,15.1,5.2,29.97,North,-999,0.0,0.0,64,0.00,,,-99.99,FreeWX 2.04,2013-01-26 08:59:00,
2013-01-26 04:04:00,15.1,5.2,29.97,North,-999,0.0,0.0,64,0.00,,,-99.99,FreeWX 2.04,2013-01-26 09:04:00,
2013-01-26 04:09:00,15.3,5.4,29.97,North,-999,0.0,0.0,64,0.00,,,-99.99,FreeWX 2.04,2013-01-26 09:09:00,
2013-01-26 04:14:00,15.3,5.4,29.97,North,-999,0.0,0.0,64,0.00,,,-99.99,FreeWX 2.04,2013-01-26 09:14:00,
2013-01-26 04:19:00,15.3,5.4,29.97,North,-999,0.0,0.0,64,0.00,,,-99.99,FreeWX 2.04,2013-01-26 09:19:00,
2013-01-26 04:24:00,15.4,5.5,29.97,North,-999,0.0,0.0,64,0.00,,,-99.99,FreeWX 2.04,2013-01-26 09:24:00,
2013-01-26 04:29:00,15.4,5.5,29.97,North,-999,0.0,0.0,64,0.00,,,-99.99,FreeWX 2.04,2013-01-26 09:29:00,
2013-01-26 04:34:00,15.4,5.5,29.97,North,-999,0.0,0.0,64,0.00,,,-99.99,FreeWX 2.04,2013-01-26 09:34:00,
2013-01-26 04:39:00,15.4,5.5,29.97,North,-999,0.0,0.0,64,0.00,,,-99.99,FreeWX 2.04,2013-01-26 09:39:00,
2013-01-26 04:44:00,15.6,5.7,29.97,North,-999,0.0,0.0,64,0.00,,,-99.99,FreeWX 2.04,2013-01-26 09:44:00,
2013-01-26 04:49:00,15.6,5.7,30.00,North,-999,0.0,0.0,64,0.00,,,-99.99,FreeWX 2.04,2013-01-26 09:49:00,
2013-01-26 04:54:00,15.6,5.9,30.00,North,-999,0.0,0.0,65,0.00,,,-99.99,FreeWX 2.04,2013-01-26 09:54:00,
2013-01-26 04:59:00,15.6,5.9,30.00,North,-999,0.0,0.0,65,0.00,,,-99.99,FreeWX 2.04,2013-01-26 09:59:00,
2013-01-26 05:04:00,15.6,5.9,30.00,North,-999,0.0,0.0,65,0.00,,,-99.99,FreeWX 2.04,2013-01-26 10:04:00,
2013-01-26 05:09:00,15.6,5.9,30.00,North,-999,0.0,0.0,65,0.00,,,-99.99,FreeWX 2.04,2013-01-26 10:09:00,
2013-01-26 05:14:00,15.6,5.9,30.00,North,-999,0.0,0.0,65,0.00,,,-99.99,FreeWX 2.04,2013-01-26 10:14:00,
2013-01-26 05:19:00,15.6,5.9,30.00,North,-999,0.0,0.0,65,0.00,,,-99.99,FreeWX 2.04,2013-01-26 10:19:00,
2013-01-26 05:24:00,15.6,5.9,30.00,North,-999,0.0,0.0,65,0.00,,,-99.99,FreeWX 2.04,2013-01-26 10:24:00,
2013-01-26 05:29:00,15.6,5.9,30.00,North,-999,0.0,0.0,65,0.00,,,-99.99,FreeWX 2.04,2013-01-26 10:29:00,
2013-01-26 05:34:00,15.6,5.9,30.00,North,-999,0.0,0.0,65,0.00,,,-99.99,FreeWX 2.04,2013-01-26 10:34:00,
2013-01-26 05:39:00,15.6,5.9,30.00,North,-999,0.0,0.0,65,0.00,,,-99.99,FreeWX 2.04,2013-01-26 10:39:00,
2013-01-26 05:44:00,15.6,5.9,30.00,North,-999,0.0,0.0,65,0.00,,,-99.99,FreeWX 2.04,2013-01-26 10:44:00,
2013-01-26 08:53:00,10.8,-99.9,30.06,North,-999,0.0,0.0,-999,0.00,,,-99.99,FreeWX 2.04,2013-01-26 13:53:00,
2013-01-26 08:58:00,10.9,-99.9,30.06,North,-999,0.0,0.0,-999,0.00,,,-99.99,FreeWX 2.04,2013-01-26 13:58:00,
2013-01-26 09:03:00,11.3,-99.9,30.06,North,-999,0.0,0.0,-999,0.00,,,-99.99,FreeWX 2.04,2013-01-26 14:03:00,
2013-01-26 09:08:00,11.7,-99.9,30.06,North,-999,0.0,0.0,-999,0.00,,,-99.99,FreeWX 2.04,2013-01-26 14:08:00,
2013-01-26 09:13:00,12.2,-99.9,30.06,North,-999,0.0,0.0,-999,0.00,,,-99.99,FreeWX 2.04,2013-01-26 14:13:00,
2013-01-26 09:18:00,12.7,-99.9,30.06,North,-999,0.0,0.0,-999,0.00,,,-99.99,FreeWX 2.04,2013-01-26 14:18:00,
2013-01-26 09:23:00,13.5,-99.9,30.06,North,-999,0.0,0.0,-999,0.00,,,-99.99,FreeWX 2.04,2013-01-26 14:23:00,
2013-01-26 09:28:00,14.2,5.5,30.06,North,-999,0.0,0.0,68,0.00,,,-99.99,FreeWX 2.04,2013-01-26 14:28:00,
2013-01-26 09:33:00,14.9,6.6,30.09,North,-999,0.0,3.6,69,0.00,,,-99.99,FreeWX 2.04,2013-01-26 14:33:00,
2013-01-26 09:38:00,15.6,7.3,30.09,North,-999,0.0,0.0,69,0.00,,,-99.99,FreeWX 2.04,2013-01-26 14:38:00,
2013-01-26 09:43:00,16.3,8.2,30.09,North,-999,0.0,4.0,70,0.00,,,-99.99,FreeWX 2.04,2013-01-26 14:43:00,
2013-01-26 09:48:00,16.9,8.8,30.09,West,273,1.0,4.5,70,0.00,,,-99.99,FreeWX 2.04,2013-01-26 14:48:00,
2013-01-26 09:53:00,17.6,9.5,30.09,WNW,290,2.0,3.6,70,0.00,,,-99.99,FreeWX 2.04,2013-01-26 14:53:00,
2013-01-26 09:58:00,18.1,10.0,30.09,WNW,302,1.0,0.0,70,0.00,,,-99.99,FreeWX 2.04,2013-01-26 14:58:00,
2013-01-26 10:03:00,18.5,10.0,30.09,North,-999,0.0,4.9,69,0.00,,,-99.99,FreeWX 2.04,2013-01-26 15:03:00,
2013-01-26 10:08:00,19.0,10.6,30.09,West,259,2.0,4.9,69,0.00,,,-99.99,FreeWX 2.04,2013-01-26 15:08:00,
2013-01-26 10:13:00,19.4,10.9,30.09,West,269,2.0,5.8,69,0.00,,,-99.99,FreeWX 2.04,2013-01-26 15:13:00,
2013-01-26 10:18:00,19.8,10.9,30.12,North,-999,0.0,0.0,68,0.00,,,-99.99,FreeWX 2.04,2013-01-26 15:18:00,
2013-01-26 10:23:00,20.3,11.5,30.12,West,264,1.0,4.9,68,0.00,,,-99.99,FreeWX 2.04,2013-01-26 15:23:00,
2013-01-26 10:28:00,20.7,11.5,30.12,West,262,1.0,3.6,67,0.00,,,-99.99,FreeWX 2.04,2013-01-26 15:28:00,
2013-01-26 10:33:00,21.2,11.7,30.12,West,273,1.0,5.4,66,0.00,,,-99.99,FreeWX 2.04,2013-01-26 15:33:00,
2013-01-26 10:38:00,21.6,12.0,30.12,WNW,300,1.0,5.8,66,0.00,,,-99.99,FreeWX 2.04,2013-01-26 15:38:00,
2013-01-26 10:43:00,22.1,11.8,30.12,NW,324,1.0,4.9,64,0.00,,,-99.99,FreeWX 2.04,2013-01-26 15:43:00,
2013-01-26 10:58:00,23.0,-99.9,30.12,WNW,288,2.0,4.5,-999,0.00,,,-99.99,FreeWX 2.04,2013-01-26 15:58:00,
2013-01-26 11:08:00,23.9,9.7,30.15,WNW,286,1.0,4.5,54,0.00,,,-99.99,FreeWX 2.04,2013-01-26 16:08:00,
2013-01-26 11:13:00,24.3,9.1,30.15,WNW,300,1.0,5.8,52,0.00,,,-99.99,FreeWX 2.04,2013-01-26 16:13:00,
2013-01-26 11:18:00,24.4,8.1,30.15,NNW,327,3.0,6.7,49,0.00,,,-99.99,FreeWX 2.04,2013-01-26 16:18:00,
2013-01-26 11:23:00,24.8,7.0,30.15,NW,320,3.0,5.8,46,0.00,,,-99.99,FreeWX 2.04,2013-01-26 16:23:00,
2013-01-26 11:28:00,24.8,6.1,30.15,NW,317,3.0,6.3,44,0.00,,,-99.99,FreeWX 2.04,2013-01-26 16:28:00,
2013-01-26 11:33:00,25.3,7.0,30.15,NNW,343,3.0,5.8,45,0.00,,,-99.99,FreeWX 2.04,2013-01-26 16:33:00,
2013-01-26 11:38:00,25.7,7.3,30.15,ENE,68,3.0,5.8,45,0.00,,,-99.99,FreeWX 2.04,2013-01-26 16:38:00,
2013-01-26 11:43:00,26.2,7.9,30.15,East,79,2.0,4.5,45,0.00,,,-99.99,FreeWX 2.04,2013-01-26 16:43:00,
2013-01-26 11:48:00,26.6,7.7,30.15,ENE,72,2.0,6.7,44,0.00,,,-99.99,FreeWX 2.04,2013-01-26 16:48:00,
2013-01-26 11:53:00,26.8,7.3,30.15,North,11,3.0,5.4,43,0.00,,,-99.99,FreeWX 2.04,2013-01-26 16:53:00,
2013-01-26 11:58:00,27.0,7.5,30.15,NNE,12,3.0,6.7,43,0.00,,,-99.99,FreeWX 2.04,2013-01-26 16:58:00,
2013-01-26 12:03:00,27.1,7.7,30.15,ENE,59,3.0,5.8,43,0.00,,,-99.99,FreeWX 2.04,2013-01-26 17:03:00,
2013-01-26 12:08:00,27.3,7.3,30.15,ENE,60,3.0,6.3,42,0.00,,,-99.99,FreeWX 2.04,2013-01-26 17:08:00,
2013-01-26 12:13:00,28.0,7.9,30.15,NE,35,3.0,6.7,42,0.00,,,-99.99,FreeWX 2.04,2013-01-26 17:13:00,
2013-01-26 12:18:00,28.0,6.3,30.15,NW,326,3.0,5.4,39,0.00,,,-99.99,FreeWX 2.04,2013-01-26 17:18:00,
2013-01-26 12:23:00,27.5,4.6,30.15,North,8,3.0,6.7,37,0.00,,,-99.99,FreeWX 2.04,2013-01-26 17:23:00,
2013-01-26 12:28:00,27.5,4.6,30.15,NE,54,4.0,7.8,37,0.00,,,-99.99,FreeWX 2.04,2013-01-26 17:28:00,
2013-01-26 12:33:00,27.5,4.1,30.15,ENE,60,4.0,6.9,36,0.00,,,-99.99,FreeWX 2.04,2013-01-26 17:33:00,
2013-01-26 12:38:00,27.9,3.7,30.15,NNE,22,4.0,6.7,35,0.00,,,-99.99,FreeWX 2.04,2013-01-26 17:38:00,
2013-01-26 12:43:00,27.9,3.2,30.15,NNW,343,3.0,7.8,34,0.00,,,-99.99,FreeWX 2.04,2013-01-26 17:43:00,
2013-01-26 12:48:00,27.9,2.5,30.15,North,352,4.0,8.3,33,0.00,,,-99.99,FreeWX 2.04,2013-01-26 17:48:00,
2013-01-26 12:53:00,27.7,2.3,30.15,North,7,4.0,7.4,33,0.00,,,-99.99,FreeWX 2.04,2013-01-26 17:53:00,
2013-01-26 13:03:00,28.4,2.3,30.15,NNE,13,3.0,7.8,32,0.00,,,-99.99,FreeWX 2.04,2013-01-26 18:03:00,
2013-01-26 13:08:00,28.8,2.7,30.15,North,10,3.0,6.3,32,0.00,,,-99.99,FreeWX 2.04,2013-01-26 18:08:00,
2013-01-26 13:13:00,28.9,2.8,30.15,NE,36,2.0,5.4,32,0.00,,,-99.99,FreeWX 2.04,2013-01-26 18:13:00,
2013-01-26 13:18:00,28.4,2.3,30.15,NE,47,3.0,6.7,32,0.00,,,-99.99,FreeWX 2.04,2013-01-26 18:18:00,
2013-01-26 13:23:00,27.7,1.0,30.15,NE,36,3.0,6.7,31,0.00,,,-99.99,FreeWX 2.04,2013-01-26 18:23:00,
2013-01-26 13:28:00,27.1,1.2,30.15,NNE,26,2.0,5.4,32,0.00,,,-99.99,FreeWX 2.04,2013-01-26 18:28:00,
2013-01-26 13:33:00,26.8,0.9,30.15,NNE,24,2.0,4.9,32,0.00,,,-99.99,FreeWX 2.04,2013-01-26 18:33:00,
2013-01-26 13:38:00,25.9,0.1,30.15,NNE,14,2.0,6.3,32,0.00,,,-99.99,FreeWX 2.04,2013-01-26 18:38:00,
2013-01-26 13:43:00,27.3,2.1,30.15,NNW,348,2.0,4.9,33,0.00,,,-99.99,FreeWX 2.04,2013-01-26 18:43:00,
2013-01-26 13:48:00,30.4,4.8,30.18,WNW,287,1.0,5.4,33,0.00,,,-99.99,FreeWX 2.04,2013-01-26 18:48:00,
2013-01-26 13:53:00,32.2,5.0,30.18,WNW,283,2.0,5.4,31,0.00,,,-99.99,FreeWX 2.04,2013-01-26 18:53:00,
2013-01-26 13:58:00,32.0,2.7,30.18,WNW,303,3.0,6.7,28,0.00,,,-99.99,FreeWX 2.04,2013-01-26 18:58:00,
2013-01-26 14:03:00,31.8,2.5,30.18,WNW,302,4.0,6.9,28,0.00,,,-99.99,FreeWX 2.04,2013-01-26 19:03:00,
2013-01-26 14:08:00,33.4,5.4,30.18,NW,322,3.0,4.5,30,0.00,,,-99.99,FreeWX 2.04,2013-01-26 19:08:00,
2013-01-26 14:13:00,33.8,3.4,30.18,North,357,2.0,5.8,27,0.00,,,-99.99,FreeWX 2.04,2013-01-26 19:13:00,
2013-01-26 14:18:00,33.6,3.2,30.18,NE,37,3.0,5.4,27,0.00,,,-99.99,FreeWX 2.04,2013-01-26 19:18:00,
2013-01-26 14:24:00,31.8,0.1,30.18,NNE,25,3.0,6.7,25,0.00,,,-99.99,FreeWX 2.04,2013-01-26 19:24:00,
2013-01-26 14:29:00,30.6,-0.9,30.18,ENE,63,2.0,4.0,25,0.00,,,-99.99,FreeWX 2.04,2013-01-26 19:29:00,
2013-01-26 14:34:00,29.7,0.7,30.18,East,90,2.0,6.7,28,0.00,,,-99.99,FreeWX 2.04,2013-01-26 19:34:00,
2013-01-26 14:39:00,28.8,-0.2,30.18,ENE,68,3.0,5.8,28,0.00,,,-99.99,FreeWX 2.04,2013-01-26 19:39:00,
2013-01-26 14:44:00,28.8,1.9,30.18,NE,52,3.0,5.8,31,0.00,,,-99.99,FreeWX 2.04,2013-01-26 19:44:00,
2013-01-26 14:49:00,29.1,2.3,30.18,NNE,25,3.0,4.5,31,0.00,,,-99.99,FreeWX 2.04,2013-01-26 19:49:00,
2013-01-26 14:54:00,29.7,2.8,30.18,NE,46,2.0,5.8,31,0.00,,,-99.99,FreeWX 2.04,2013-01-26 19:54:00,
2013-01-26 14:59:00,29.1,2.3,30.18,ENE,73,2.0,6.7,31,0.00,,,-99.99,FreeWX 2.04,2013-01-26 19:59:00,
2013-01-26 15:04:00,28.9,2.1,30.18,ENE,63,2.0,4.9,31,0.00,,,-99.99,FreeWX 2.04,2013-01-26 20:04:00,
2013-01-26 15:09:00,28.2,1.6,30.18,ENE,68,2.0,6.7,31,0.00,,,-99.99,FreeWX 2.04,2013-01-26 20:09:00,
2013-01-26 15:14:00,27.0,1.0,30.18,East,80,2.0,5.8,32,0.00,,,-99.99,FreeWX 2.04,2013-01-26 20:14:00,
2013-01-26 15:19:00,26.8,0.9,30.18,East,81,2.0,5.8,32,0.00,,,-99.99,FreeWX 2.04,2013-01-26 20:19:00,
2013-01-26 15:24:00,27.0,1.8,30.18,ENE,59,2.0,6.7,33,0.00,,,-99.99,FreeWX 2.04,2013-01-26 20:24:00,
2013-01-26 15:29:00,27.5,1.6,30.18,ENE,64,1.0,4.5,32,0.00,,,-99.99,FreeWX 2.04,2013-01-26 20:29:00,
2013-01-26 15:34:00,27.9,1.2,30.21,East,82,1.0,4.9,31,0.00,,,-99.99,FreeWX 2.04,2013-01-26 20:34:00,
2013-01-26 15:39:00,28.2,2.1,30.21,East,97,2.0,4.9,32,0.00,,,-99.99,FreeWX 2.04,2013-01-26 20:39:00,
2013-01-26 15:44:00,27.7,1.0,30.21,East,88,1.0,4.9,31,0.00,,,-99.99,FreeWX 2.04,2013-01-26 20:44:00,
2013-01-26 15:49:00,26.6,0.7,30.21,NE,38,1.0,4.0,32,0.00,,,-99.99,FreeWX 2.04,2013-01-26 20:49:00,
2013-01-26 15:54:00,26.2,0.5,30.21,North,-999,0.0,0.0,32,0.00,,,-99.99,FreeWX 2.04,2013-01-26 20:54:00,
2013-01-26 15:59:00,26.2,0.5,30.21,North,-999,0.0,4.5,32,0.00,,,-99.99,FreeWX 2.04,2013-01-26 20:59:00,
2013-01-26 16:04:00,26.8,1.6,30.21,WNW,298,1.0,3.6,33,0.00,,,-99.99,FreeWX 2.04,2013-01-26 21:04:00,
2013-01-26 16:09:00,27.7,1.8,30.21,North,-999,0.0,5.4,32,0.00,,,-99.99,FreeWX 2.04,2013-01-26 21:09:00,
2013-01-26 16:14:00,27.5,1.6,30.21,North,1,2.0,5.8,32,0.00,,,-99.99,FreeWX 2.04,2013-01-26 21:14:00,
2013-01-26 16:19:00,27.1,1.2,30.21,NE,54,2.0,5.4,32,0.00,,,-99.99,FreeWX 2.04,2013-01-26 21:19:00,
2013-01-26 16:24:00,26.8,0.9,30.21,North,-999,0.0,4.0,32,0.00,,,-99.99,FreeWX 2.04,2013-01-26 21:24:00,
2013-01-26 16:29:00,26.1,0.3,30.21,NE,38,1.0,5.4,32,0.00,,,-99.99,FreeWX 2.04,2013-01-26 21:29:00,
2013-01-26 16:34:00,25.5,0.5,30.24,ENE,74,1.0,3.1,33,0.00,,,-99.99,FreeWX 2.04,2013-01-26 21:34:00,
2013-01-26 16:39:00,25.2,0.1,30.24,North,-999,0.0,4.9,33,0.00,,,-99.99,FreeWX 2.04,2013-01-26 21:39:00,
2013-01-26 16:44:00,24.8,-0.2,30.24,North,-999,0.0,0.0,33,0.00,,,-99.99,FreeWX 2.04,2013-01-26 21:44:00,
2013-01-26 16:49:00,25.0,0.0,30.24,North,-999,0.0,2.7,33,0.00,,,-99.99,FreeWX 2.04,2013-01-26 21:49:00,
2013-01-26 16:54:00,25.2,0.1,30.24,North,-999,0.0,0.0,33,0.00,,,-99.99,FreeWX 2.04,2013-01-26 21:54:00,
2013-01-26 16:59:00,25.0,0.0,30.24,North,-999,0.0,0.0,33,0.00,,,-99.99,FreeWX 2.04,2013-01-26 21:59:00,
2013-01-26 17:04:00,25.0,0.0,30.24,North,-999,0.0,0.0,33,0.00,,,-99.99,FreeWX 2.04,2013-01-26 22:04:00,
2013-01-26 17:09:00,24.8,-0.2,30.24,North,-999,0.0,0.0,33,0.00,,,-99.99,FreeWX 2.04,2013-01-26 22:09:00,
2013-01-26 17:14:00,24.8,-0.2,30.24,North,-999,0.0,0.0,33,0.00,,,-99.99,FreeWX 2.04,2013-01-26 22:14:00,
2013-01-26 17:19:00,24.6,-0.4,30.24,North,-999,0.0,0.0,33,0.00,,,-99.99,FreeWX 2.04,2013-01-26 22:19:00,
2013-01-26 17:24:00,24.6,-0.4,30.24,North,-999,0.0,0.0,33,0.00,,,-99.99,FreeWX 2.04,2013-01-26 22:24:00,
2013-01-26 17:29:00,24.4,-0.6,30.24,North,-999,0.0,0.0,33,0.00,,,-99.99,FreeWX 2.04,2013-01-26 22:29:00,
2013-01-26 17:34:00,24.3,-0.6,30.24,North,-999,0.0,0.0,33,0.00,,,-99.99,FreeWX 2.04,2013-01-26 22:34:00,
2013-01-26 17:39:00,24.1,-0.8,30.24,North,-999,0.0,3.1,33,0.00,,,-99.99,FreeWX 2.04,2013-01-26 22:39:00,
2013-01-26 17:44:00,23.9,-0.4,30.24,North,-999,0.0,2.7,34,0.00,,,-99.99,FreeWX 2.04,2013-01-26 22:44:00,
2013-01-26 17:49:00,23.5,-0.6,30.27,North,-999,0.0,0.0,34,0.00,,,-99.99,FreeWX 2.04,2013-01-26 22:49:00,
2013-01-26 17:54:00,23.4,-0.8,30.27,North,-999,0.0,0.0,34,0.00,,,-99.99,FreeWX 2.04,2013-01-26 22:54:00,
2013-01-26 17:59:00,23.0,-1.1,30.27,North,-999,0.0,0.0,34,0.00,,,-99.99,FreeWX 2.04,2013-01-26 22:59:00,
2013-01-26 18:04:00,22.6,-1.5,30.27,North,-999,0.0,0.0,34,0.00,,,-99.99,FreeWX 2.04,2013-01-26 23:04:00,
2013-01-26 18:09:00,22.3,-1.8,30.27,North,-999,0.0,0.0,34,0.00,,,-99.99,FreeWX 2.04,2013-01-26 23:09:00,
2013-01-26 18:14:00,21.9,-2.0,30.27,North,-999,0.0,0.0,34,0.00,,,-99.99,FreeWX 2.04,2013-01-26 23:14:00,
2013-01-26 18:19:00,21.6,-1.8,30.27,North,-999,0.0,0.0,35,0.00,,,-99.99,FreeWX 2.04,2013-01-26 23:19:00,
2013-01-26 18:24:00,21.4,-2.0,30.27,North,-999,0.0,0.0,35,0.00,,,-99.99,FreeWX 2.04,2013-01-26 23:24:00,
2013-01-26 18:29:00,21.4,-2.0,30.27,North,-999,0.0,0.0,35,0.00,,,-99.99,FreeWX 2.04,2013-01-26 23:29:00,
2013-01-26 18:34:00,21.0,-2.4,30.27,North,-999,0.0,0.0,35,0.00,,,-99.99,FreeWX 2.04,2013-01-26 23:34:00,
2013-01-26 18:39:00,20.7,-2.6,30.27,North,-999,0.0,0.0,35,0.00,,,-99.99,FreeWX 2.04,2013-01-26 23:39:00,
2013-01-26 18:44:00,20.3,-2.4,30.27,North,-999,0.0,0.0,36,0.00,,,-99.99,FreeWX 2.04,2013-01-26 23:44:00,
2013-01-26 18:49:00,19.9,-2.7,30.27,North,-999,0.0,0.0,36,0.00,,,-99.99,FreeWX 2.04,2013-01-26 23:49:00,
2013-01-26 18:54:00,19.6,-2.4,30.27,North,-999,0.0,0.0,37,0.00,,,-99.99,FreeWX 2.04,2013-01-26 23:54:00,
2013-01-26 18:59:00,19.2,-2.7,30.27,North,-999,0.0,0.0,37,0.00,,,-99.99,FreeWX 2.04,2013-01-26 23:59:00,
2013-01-26 19:04:00,18.9,-2.6,30.27,North,-999,0.0,0.0,38,0.00,,,-99.99,FreeWX 2.04,2013-01-27 00:04:00,
2013-01-26 19:09:00,18.1,-3.1,30.27,North,-999,0.0,0.0,38,0.00,,,-99.99,FreeWX 2.04,2013-01-27 00:09:00,
2013-01-26 19:14:00,18.0,-2.7,30.27,North,-999,0.0,0.0,39,0.00,,,-99.99,FreeWX 2.04,2013-01-27 00:14:00,
2013-01-26 19:19:00,17.6,-3.1,30.30,North,-999,0.0,0.0,39,0.00,,,-99.99,FreeWX 2.04,2013-01-27 00:19:00,
2013-01-26 19:24:00,17.4,-2.7,30.30,North,-999,0.0,0.0,40,0.00,,,-99.99,FreeWX 2.04,2013-01-27 00:24:00,
2013-01-26 19:29:00,17.2,-1.8,30.30,North,-999,0.0,0.0,42,0.00,,,-99.99,FreeWX 2.04,2013-01-27 00:29:00,
2013-01-26 19:34:00,16.7,-1.8,30.30,North,-999,0.0,0.0,43,0.00,,,-99.99,FreeWX 2.04,2013-01-27 00:34:00,
2013-01-26 19:39:00,16.5,-2.0,30.30,North,-999,0.0,0.0,43,0.00,,,-99.99,FreeWX 2.04,2013-01-27 00:39:00,
2013-01-26 19:44:00,16.5,-1.5,30.30,North,-999,0.0,0.0,44,0.00,,,-99.99,FreeWX 2.04,2013-01-27 00:44:00,
2013-01-26 19:49:00,16.2,-1.8,30.30,North,-999,0.0,0.0,44,0.00,,,-99.99,FreeWX 2.04,2013-01-27 00:49:00,
2013-01-26 19:54:00,16.0,-2.0,30.30,North,-999,0.0,0.0,44,0.00,,,-99.99,FreeWX 2.04,2013-01-27 00:54:00,
2013-01-26 19:59:00,15.4,-2.6,30.30,North,-999,0.0,0.0,44,0.00,,,-99.99,FreeWX 2.04,2013-01-27 00:59:00,
2013-01-26 20:04:00,15.1,-2.9,30.30,North,-999,0.0,0.0,44,0.00,,,-99.99,FreeWX 2.04,2013-01-27 01:04:00,
2013-01-26 20:09:00,14.9,-2.6,30.30,North,-999,0.0,0.0,45,0.00,,,-99.99,FreeWX 2.04,2013-01-27 01:09:00,
2013-01-26 20:14:00,14.7,-2.2,30.30,North,-999,0.0,0.0,46,0.00,,,-99.99,FreeWX 2.04,2013-01-27 01:14:00,
2013-01-26 20:19:00,14.4,-2.6,30.30,North,-999,0.0,0.0,46,0.00,,,-99.99,FreeWX 2.04,2013-01-27 01:19:00,
2013-01-26 20:24:00,14.2,-2.7,30.30,North,-999,0.0,0.0,46,0.00,,,-99.99,FreeWX 2.04,2013-01-27 01:24:00,
2013-01-26 20:29:00,14.0,-2.6,30.30,North,-999,0.0,0.0,47,0.00,,,-99.99,FreeWX 2.04,2013-01-27 01:29:00,
2013-01-26 20:34:00,13.8,-99.9,30.30,North,-999,0.0,0.0,-999,0.00,,,-99.99,FreeWX 2.04,2013-01-27 01:34:00,
2013-01-26 20:39:00,13.6,-99.9,30.30,North,-999,0.0,0.0,-999,0.00,,,-99.99,FreeWX 2.04,2013-01-27 01:39:00,
2013-01-26 20:44:00,13.5,-99.9,30.30,North,-999,0.0,0.0,-999,0.00,,,-99.99,FreeWX 2.04,2013-01-27 01:44:00,
2013-01-26 20:49:00,13.3,-99.9,30.30,North,-999,0.0,0.0,-999,0.00,,,-99.99,FreeWX 2.04,2013-01-27 01:49:00,
2013-01-26 20:54:00,13.1,-99.9,30.30,North,-999,0.0,0.0,-999,0.00,,,-99.99,FreeWX 2.04,2013-01-27 01:54:00,
2013-01-26 20:59:00,12.7,-99.9,30.30,North,-999,0.0,0.0,-999,0.00,,,-99.99,FreeWX 2.04,2013-01-27 01:59:00,
2013-01-26 21:04:00,12.6,-99.9,30.30,North,-999,0.0,0.0,-999,0.00,,,-99.99,FreeWX 2.04,2013-01-27 02:04:00,
2013-01-26 21:09:00,12.4,-99.9,30.30,North,-999,0.0,0.0,-999,0.00,,,-99.99,FreeWX 2.04,2013-01-27 02:09:00,
2013-01-26 21:14:00,12.2,-99.9,30.30,North,-999,0.0,0.0,-999,0.00,,,-99.99,FreeWX 2.04,2013-01-27 02:14:00,
2013-01-26 21:19:00,12.0,-99.9,30.30,North,-999,0.0,0.0,-999,0.00,,,-99.99,FreeWX 2.04,2013-01-27 02:19:00,
2013-01-26 21:24:00,11.7,-99.9,30.30,North,-999,0.0,0.0,-999,0.00,,,-99.99,FreeWX 2.04,2013-01-27 02:24:00,